Time;durP1;ratioP1;P1;durP2;ratioP2;P2;SDS_P1;SDS_P2;PMS_P1;PMS_P2;Temp;Humidity;BMP_temperature;BMP_pressure;BME280_temperature;BME280_humidity;BME280_pressure;Samples;Min_cycle;Max_cycle;Signal;HPM_P1;HPM_P2
2022/08/23 00:02:05;;;;;;;2.33;2.03;;;24.60;57.50;;;25.76;38.29;100389.34;4988336;28;20642;-67
2022/08/23 00:04:49;;;;;;;2.47;2.27;;;24.60;57.70;;;25.75;38.17;100383.16;4975308;28;20721;-67
2022/08/23 00:07:38;;;;;;;2.00;1.90;;;24.50;57.40;;;25.69;38.42;100378.69;4962757;28;21046;-68
2022/08/23 00:10:09;;;;;;;2.20;2.10;;;24.50;57.40;;;25.57;38.78;100379.56;4975373;28;20643;-68
2022/08/23 00:12:37;;;;;;;2.30;2.20;;;24.50;57.60;;;25.46;39.09;100378.41;4974053;28;20623;-69
2022/08/23 00:15:07;;;;;;;2.63;2.43;;;24.40;57.80;;;25.45;38.50;100373.28;4990134;28;20638;-67
2022/08/23 00:17:35;;;;;;;2.40;2.30;;;24.40;57.70;;;25.44;38.75;100384.97;4981267;28;20729;-68
2022/08/23 00:20:10;;;;;;;1.70;1.60;;;24.40;57.50;;;25.34;38.59;100374.72;4982735;28;20763;-68
2022/08/23 00:22:38;;;;;;;2.63;2.10;;;24.30;57.70;;;25.40;38.40;100382.72;4988542;28;20633;-68
2022/08/23 00:25:10;;;;;;;7.20;2.60;;;24.30;58.50;;;25.37;38.50;100379.63;4990961;28;20639;-68
2022/08/23 00:27:37;;;;;;;1.97;1.87;;;24.30;58.00;;;25.38;38.73;100375.94;4991405;28;20658;-69
2022/08/23 00:30:09;;;;;;;4.90;2.27;;;24.30;58.10;;;25.37;38.64;100374.28;4973952;28;20638;-69
2022/08/23 00:32:38;;;;;;;4.40;2.40;;;24.20;58.20;;;25.39;39.29;100374.91;4991109;28;21208;-69
2022/08/23 00:35:08;;;;;;;2.57;2.37;;;24.20;58.30;;;25.34;39.38;100374.72;4983603;28;21131;-69
2022/08/23 00:37:36;;;;;;;6.30;2.40;;;24.20;58.50;;;25.27;39.42;100368.59;4974338;28;20627;-68
2022/08/23 00:40:10;;;;;;;3.50;2.23;;;24.10;58.50;;;25.26;39.69;100367.75;4974207;28;20645;-69
2022/08/23 00:49:21;;;;;;;3.17;2.97;;;23.90;59.60;;;24.99;40.11;100360.06;4960406;28;21036;-68
2022/08/23 00:52:03;;;;;;;3.07;2.87;;;23.80;59.80;;;24.95;40.14;100369.50;4994613;28;20958;-68
2022/08/23 00:54:31;;;;;;;2.90;2.53;;;23.70;59.80;;;24.90;40.62;100367.47;4986557;28;21219;-68
2022/08/23 00:57:04;;;;;;;9.10;2.50;;;23.70;60.00;;;24.92;40.25;100367.25;4978675;28;20622;-69
2022/08/23 00:59:32;;;;;;;2.80;2.60;;;23.60;59.90;;;24.94;40.03;100373.19;4995825;28;20682;-68
2022/08/23 01:02:00;;;;;;;3.30;2.93;;;23.60;59.90;;;24.92;40.34;100369.91;4975301;28;20626;-68
2022/08/23 01:04:33;;;;;;;2.47;2.23;;;23.60;60.10;;;24.83;40.53;100379.19;4976387;28;21217;-68
2022/08/23 01:07:22;;;;;;;7.30;2.40;;;23.50;60.20;;;24.84;40.61;100375.50;4993921;28;20678;-69
2022/08/23 01:09:55;;;;;;;3.30;2.40;;;23.50;60.50;;;24.82;40.86;100382.88;4993956;28;20742;-68
2022/08/23 01:12:39;;;;;;;5.30;2.60;;;23.50;60.80;;;24.63;41.19;100390.69;4977225;28;20631;-68
2022/08/23 01:15:17;;;;;;;3.10;2.50;;;23.40;60.90;;;24.67;41.25;100388.41;4946187;28;20713;-69
2022/08/23 01:17:56;;;;;;;3.00;2.80;;;23.30;61.10;;;24.64;40.87;100388.81;4976410;28;20661;-68
2022/08/23 01:20:24;;;;;;;3.00;2.80;;;23.30;61.40;;;24.54;41.03;100393.75;4992257;28;20729;-69
2022/08/23 01:23:07;;;;;;;3.50;3.20;;;23.20;61.40;;;24.46;41.86;100399.31;4993623;28;21202;-67
2022/08/23 01:25:36;;;;;;;3.63;3.33;;;23.20;61.90;;;24.36;42.26;100396.25;4975149;28;20661;-68
2022/08/23 01:28:03;;;;;;;3.73;3.43;;;23.10;62.20;;;24.34;41.97;100399.09;4976538;28;20659;-68
2022/08/23 01:30:32;;;;;;;5.50;3.63;;;23.00;62.20;;;24.32;41.71;100398.47;4992617;28;21275;-67
2022/08/23 01:33:03;;;;;;;3.80;3.37;;;23.00;62.40;;;24.23;42.13;100405.06;4994572;28;20615;-67
2022/08/23 01:35:40;;;;;;;3.30;3.00;;;22.90;62.50;;;24.14;42.75;100406.28;4959640;28;20627;-67
2022/08/23 01:38:09;;;;;;;3.60;3.30;;;22.90;62.90;;;24.10;42.61;100409.53;4980572;28;20618;-68
2022/08/23 01:40:37;;;;;;;5.67;4.23;;;22.80;63.00;;;24.03;42.78;100406.84;4976025;28;20654;-67
2022/08/23 01:43:06;;;;;;;4.57;3.33;;;22.70;63.20;;;23.91;42.98;100403.94;4986339;28;20635;-67
2022/08/23 01:45:34;;;;;;;4.80;3.40;;;22.60;63.60;;;23.87;43.17;100409.88;4992514;28;20633;-67
2022/08/23 01:48:01;;;;;;;6.13;3.47;;;22.50;63.70;;;23.83;43.06;100405.94;4978108;28;21253;-67
2022/08/23 01:50:30;;;;;;;3.40;3.10;;;22.50;64.00;;;23.74;43.53;100402.69;4960157;28;20750;-67
2022/08/23 01:52:58;;;;;;;3.13;2.90;;;22.50;64.20;;;23.67;43.55;100404.50;4960185;28;20622;-67
2022/08/23 01:55:26;;;;;;;4.93;3.90;;;22.40;64.30;;;23.55;43.68;100394.63;4974936;28;20658;-66
2022/08/23 01:57:57;;;;;;;5.80;3.40;;;22.30;64.50;;;23.55;43.75;100397.28;4976024;28;20611;-67
2022/08/23 02:00:39;;;;;;;3.13;2.93;;;22.30;64.90;;;23.56;44.17;100401.56;4975034;28;20642;-67
2022/08/23 02:03:08;;;;;;;5.67;3.37;;;22.20;65.10;;;23.35;44.63;100405.19;4975697;28;20614;-67
2022/08/23 02:05:36;;;;;;;3.80;3.50;;;22.00;65.30;;;23.26;44.75;100400.19;4974691;28;21014;-67
2022/08/23 02:10:52;;;;;;;4.23;3.80;;;22.00;66.20;;;23.17;45.08;100404.06;4992694;28;20630;-68
2022/08/23 02:13:19;;;;;;;6.13;3.77;;;21.90;66.40;;;23.12;45.33;100405.47;4976512;28;20619;-69
2022/08/23 02:15:50;;;;;;;5.20;4.23;;;21.80;66.50;;;23.11;45.50;100409.13;4981303;28;21225;-68
2022/08/23 02:18:19;;;;;;;4.33;3.30;;;21.80;67.50;;;23.14;45.63;100418.56;4992707;28;20673;-68
2022/08/23 02:20:50;;;;;;;4.83;3.60;;;21.80;67.10;;;23.10;45.70;100414.66;4960322;28;20665;-68
2022/08/23 02:23:20;;;;;;;4.30;3.90;;;21.80;67.40;;;23.14;45.41;100418.56;4974544;28;20617;-68
2022/08/23 02:25:47;;;;;;;4.67;4.10;;;21.80;67.20;;;23.09;45.75;100423.63;4974329;28;20635;-68
2022/08/23 02:28:14;;;;;;;4.40;3.37;;;21.80;67.40;;;23.11;45.68;100417.09;4993288;28;20667;-68
2022/08/23 02:30:44;;;;;;;4.50;4.07;;;21.80;67.30;;;23.05;45.66;100414.41;4974272;28;21233;-68
2022/08/23 02:33:13;;;;;;;5.03;4.10;;;21.80;67.30;;;23.01;45.68;100415.81;4991739;28;20626;-67
2022/08/23 02:35:42;;;;;;;5.10;4.27;;;21.80;67.40;;;22.92;45.95;100412.50;4973163;28;20635;-68
2022/08/23 02:38:12;;;;;;;6.00;3.20;;;21.70;67.50;;;22.88;45.95;100413.91;4973997;28;20997;-68
2022/08/23 02:40:41;;;;;;;4.90;3.97;;;21.60;67.70;;;22.80;46.21;100416.72;4990886;28;20642;-69
2022/08/23 02:43:09;;;;;;;4.17;3.87;;;21.60;68.10;;;22.86;46.33;100421.25;4975621;28;20632;-68
2022/08/23 02:45:36;;;;;;;3.60;3.30;;;21.50;68.30;;;22.82;46.42;100425.31;4973510;28;20717;-67
2022/08/23 02:48:05;;;;;;;7.63;4.33;;;21.50;68.60;;;22.75;46.53;100427.09;4973732;28;20689;-69
2022/08/23 02:50:33;;;;;;;4.03;3.73;;;21.50;68.90;;;22.75;46.79;100437.75;4982601;28;20650;-68
2022/08/23 02:53:00;;;;;;;3.97;3.60;;;21.40;68.90;;;22.59;46.93;100437.22;4974927;28;20610;-68
2022/08/23 02:55:27;;;;;;;6.30;3.90;;;21.40;69.10;;;22.71;46.60;100435.66;4958053;28;21194;-67
2022/08/23 02:57:54;;;;;;;4.17;3.80;;;21.40;69.20;;;22.68;46.94;100433.41;4991378;28;20615;-68
2022/08/23 03:00:22;;;;;;;4.17;3.70;;;21.40;69.50;;;22.53;47.24;100433.44;4991532;28;20678;-68
2022/08/23 03:02:49;;;;;;;4.33;3.90;;;21.30;70.10;;;22.48;47.35;100433.22;4974720;28;20634;-68
2022/08/23 03:05:16;;;;;;;4.20;3.77;;;21.30;69.90;;;22.52;47.26;100434.47;4991119;28;21091;-68
2022/08/23 03:07:44;;;;;;;4.97;3.33;;;21.20;70.10;;;22.51;47.22;100432.81;4991759;28;20669;-68
2022/08/23 03:10:11;;;;;;;5.07;4.10;;;21.20;70.20;;;22.47;47.35;100434.22;4972957;28;20658;-68
2022/08/23 03:12:38;;;;;;;5.43;3.90;;;21.10;70.30;;;22.48;47.37;100437.69;4971782;28;20722;-68
2022/08/23 03:15:07;;;;;;;4.13;3.67;;;21.10;70.60;;;22.46;47.54;100437.91;4990421;28;20681;-68
2022/08/23 03:17:34;;;;;;;4.73;4.13;;;21.10;70.70;;;22.48;47.58;100443.84;4990909;28;21001;-68
2022/08/23 03:20:01;;;;;;;3.73;3.43;;;21.10;71.00;;;22.56;47.53;100449.03;4979802;28;21037;-68
2022/08/23 03:22:28;;;;;;;3.70;3.40;;;21.10;71.20;;;22.51;47.60;100443.44;4970896;28;21015;-68
2022/08/23 03:24:56;;;;;;;4.17;3.60;;;21.10;71.40;;;22.53;47.72;100451.25;4986239;28;21199;-68
2022/08/23 03:27:23;;;;;;;4.97;3.70;;;21.10;71.40;;;22.50;47.71;100443.66;4978857;28;20673;-68
2022/08/23 03:29:50;;;;;;;4.80;4.27;;;21.10;71.70;;;22.45;47.85;100443.38;4991610;28;20726;-68
2022/08/23 03:32:16;;;;;;;4.00;3.70;;;21.10;71.90;;;22.44;47.86;100445.25;4991506;28;20617;-68
2022/08/23 03:34:44;;;;;;;4.33;3.93;;;21.10;72.10;;;22.43;48.30;100438.28;4990290;28;21222;-68
2022/08/23 03:37:11;;;;;;;3.73;3.47;;;21.10;72.60;;;22.41;48.35;100445.63;4979349;28;20745;-68
2022/08/23 03:39:39;;;;;;;5.87;3.60;;;21.10;73.00;;;22.51;48.39;100439.97;4990842;28;20649;-68
2022/08/23 03:42:07;;;;;;;6.47;4.00;;;21.10;73.10;;;22.41;48.41;100448.28;4973876;28;20641;-68
2022/08/23 03:44:34;;;;;;;4.10;3.80;;;21.00;73.50;;;22.35;48.94;100454.34;4991092;28;20639;-68
2022/08/23 03:47:01;;;;;;;5.13;3.43;;;21.00;73.80;;;22.42;49.09;100455.25;4990535;28;20667;-68
2022/08/23 03:49:28;;;;;;;4.70;4.10;;;21.00;74.50;;;22.43;48.95;100448.91;4990896;28;20630;-68
2022/08/23 03:51:55;;;;;;;8.50;3.93;;;21.00;74.80;;;22.39;49.34;100455.63;4989115;28;20642;-68
2022/08/23 03:54:22;;;;;;;3.97;3.67;;;21.00;75.40;;;22.37;49.35;100470.94;4990420;28;21013;-68
2022/08/23 03:56:59;;;;;;;3.53;3.23;;;20.90;75.60;;;22.32;49.27;100465.34;4989120;28;20635;-68
2022/08/23 03:59:27;;;;;;;4.50;4.10;;;20.90;75.60;;;22.20;49.71;100470.38;4972918;28;20650;-68
2022/08/23 04:01:55;;;;;;;4.47;3.40;;;20.90;76.10;;;22.18;50.03;100471.56;4991335;28;20644;-68
2022/08/23 04:04:22;;;;;;;5.87;4.10;;;20.80;76.60;;;22.21;49.80;100466.69;4989948;28;20626;-68
2022/08/23 04:06:49;;;;;;;4.83;3.67;;;20.80;76.90;;;22.20;50.32;100470.38;4972416;28;21004;-68
2022/08/23 04:09:16;;;;;;;4.27;3.87;;;20.80;77.80;;;22.24;50.64;100478.78;4990297;28;20634;-69
2022/08/23 04:11:44;;;;;;;6.40;3.90;;;20.90;78.40;;;22.23;50.78;100485.13;4957794;28;20645;-68
2022/08/23 04:14:12;;;;;;;6.33;4.10;;;20.90;78.80;;;22.23;50.88;100479.81;4958574;28;20707;-67
2022/08/23 04:16:39;;;;;;;4.40;3.50;;;20.80;79.10;;;22.18;50.72;100483.03;4972840;28;20649;-68
2022/08/23 04:19:11;;;;;;;4.33;3.93;;;20.80;79.40;;;22.20;51.02;100490.78;4990378;28;21256;-68
2022/08/23 04:21:46;;;;;;;5.20;4.63;;;20.80;79.90;;;22.09;51.47;100491.28;4989096;28;20635;-67
2022/08/23 04:24:16;;;;;;;8.63;4.47;;;20.70;80.40;;;22.06;51.40;100492.47;4992846;28;20615;-68
2022/08/23 04:26:42;;;;;;;5.97;4.50;;;20.70;80.60;;;22.05;51.59;100490.00;4988589;28;21018;-68
2022/08/23 04:29:15;;;;;;;6.33;3.97;;;20.70;80.90;;;22.11;51.36;100491.91;4995569;28;20682;-68
2022/08/23 04:32:02;;;;;;;4.37;4.07;;;20.70;81.00;;;22.03;51.66;100495.53;4994733;28;20626;-68
2022/08/23 04:34:35;;;;;;;4.27;3.87;;;20.70;82.00;;;22.02;51.49;100493.06;4978397;28;20983;-68
2022/08/23 04:37:02;;;;;;;5.47;4.10;;;20.60;81.50;;;22.08;51.37;100495.78;4993836;28;20660;-69
2022/08/23 04:42:16;;;;;;;5.73;3.67;;;20.70;81.90;;;22.10;51.34;100506.22;4996072;23;20695;-68
2022/08/23 04:42:24;;;;;;;4.93;3.97;;;20.70;82.00;;;22.15;51.59;100503.81;4979756;28;20625;-68
2022/08/23 04:44:51;;;;;;;6.00;4.03;;;20.70;82.30;;;22.00;51.76;100506.50;4993563;28;20619;-68
2022/08/23 04:47:19;;;;;;;5.90;3.70;;;20.70;82.50;;;22.04;51.76;100512.28;4974574;28;20659;-68
2022/08/23 04:49:46;;;;;;;7.57;4.40;;;20.70;82.70;;;22.13;51.29;100519.13;4976530;28;20631;-68
2022/08/23 04:52:13;;;;;;;8.23;3.73;;;20.70;82.80;;;22.19;51.36;100516.53;4993739;28;20634;-68
2022/08/23 04:54:45;;;;;;;5.27;4.03;;;20.70;82.60;;;22.17;51.12;100523.06;4977229;28;21175;-68
2022/08/23 04:57:14;;;;;;;4.70;4.10;;;20.80;82.40;;;22.20;51.01;100523.50;4993802;28;20718;-70
2022/08/23 04:59:41;;;;;;;6.23;4.60;;;20.80;82.10;;;22.31;50.67;100517.72;4976802;28;20678;-70
2022/08/23 05:02:08;;;;;;;6.37;4.10;;;20.90;82.00;;;22.45;50.29;100521.31;4994002;28;20634;-69
2022/08/23 05:04:35;;;;;;;8.00;4.30;;;21.00;81.60;;;22.63;49.17;100527.06;4993238;28;21175;-69
2022/08/23 05:07:02;;;;;;;6.83;4.43;;;21.10;80.30;;;22.79;48.90;100534.75;4992224;28;21422;-69
2022/08/23 05:09:29;;;;;;;3.93;3.63;;;21.30;79.60;;;23.05;48.00;100540.31;4994505;28;20630;-70
2022/08/23 05:11:56;;;;;;;6.33;4.10;;;21.50;78.90;;;23.22;47.57;100543.50;4993440;28;20635;-69
2022/08/23 05:14:23;;;;;;;3.90;3.57;;;21.70;78.20;;;23.48;46.93;100537.56;4991613;28;20670;-69
2022/08/23 05:16:50;;;;;;;4.43;3.83;;;21.90;77.80;;;23.70;46.63;100539.13;4992667;28;20618;-70
2022/08/23 05:19:17;;;;;;;4.70;4.30;;;22.10;77.00;;;24.00;45.71;100545.81;4992255;28;20662;-69
2022/08/23 05:21:45;;;;;;;4.17;3.77;;;22.40;76.20;;;24.27;44.94;100547.59;4978277;28;20729;-69
2022/08/23 05:24:12;;;;;;;4.40;4.10;;;22.70;75.00;;;24.53;44.50;100544.97;4985865;28;20625;-69
2022/08/23 05:26:40;;;;;;;7.87;4.37;;;22.90;74.00;;;24.87;43.41;100557.38;4992413;28;21523;-69
2022/08/23 05:29:07;;;;;;;4.93;3.93;;;23.10;72.70;;;25.19;42.47;100547.72;4992958;28;20677;-69
2022/08/23 05:31:34;;;;;;;4.77;4.00;;;23.40;72.00;;;25.43;42.15;100556.97;4975447;28;20641;-69
2022/08/23 05:34:01;;;;;;;5.63;4.40;;;23.60;71.20;;;25.68;41.48;100558.75;4994283;28;20987;-69
2022/08/23 05:36:28;;;;;;;5.57;4.23;;;23.80;70.40;;;26.03;40.81;100567.25;4990887;28;20634;-70
2022/08/23 05:38:55;;;;;;;5.07;3.80;;;24.10;69.70;;;26.49;39.83;100570.53;4993946;28;20628;-70
2022/08/23 05:41:22;;;;;;;6.20;4.30;;;24.40;69.00;;;26.94;38.76;100571.31;4992772;28;20650;-69
2022/08/23 05:44:03;;;;;;;5.47;3.50;;;24.80;68.00;;;27.42;38.02;100569.69;4994370;28;20615;-70
2022/08/23 05:46:30;;;;;;;9.20;4.03;;;25.20;67.20;;;27.88;37.14;100573.72;4991317;28;20637;-69
2022/08/23 05:48:57;;;;;;;4.70;4.13;;;25.50;66.40;;;28.40;36.44;100581.97;4992127;28;20673;-69
2022/08/23 05:51:32;;;;;;;4.00;3.30;;;25.90;65.50;;;28.90;35.61;100585.16;4992001;28;20631;-69
2022/08/23 05:54:03;;;;;;;3.90;3.57;;;26.30;64.50;;;29.31;34.65;100580.78;4992306;28;21191;-69
2022/08/23 05:56:35;;;;;;;5.60;3.80;;;26.60;63.50;;;29.80;33.92;100591.09;4992767;28;20630;-69
2022/08/23 05:59:07;;;;;;;3.53;2.80;;;27.00;62.90;;;30.28;32.60;100596.13;4991709;28;20645;-70
2022/08/23 06:01:40;;;;;;;4.60;3.57;;;27.40;62.00;;;30.66;31.65;100593.63;4992733;28;20741;-70
2022/08/23 06:04:11;;;;;;;3.40;3.13;;;27.70;60.80;;;31.28;31.03;100597.91;4992413;28;20649;-69
2022/08/23 06:06:40;;;;;;;4.07;3.37;;;28.10;60.20;;;31.89;30.39;100596.94;4992275;28;21072;-70
2022/08/23 06:09:11;;;;;;;6.13;3.50;;;28.60;59.40;;;32.70;29.29;100595.19;4992549;28;20663;-70
2022/08/23 06:11:38;;;;;;;4.50;3.70;;;29.00;58.80;;;33.43;28.58;100595.28;4991562;28;20615;-71
2022/08/23 06:14:07;;;;;;;3.90;3.60;;;29.50;58.00;;;33.94;27.95;100599.09;4992938;28;20706;-69
2022/08/23 06:16:42;;;;;;;5.30;3.83;;;30.00;57.10;;;34.13;27.32;100608.41;4989699;28;21383;-70
2022/08/23 06:19:10;;;;;;;8.10;3.80;;;30.20;55.80;;;34.28;27.30;100605.75;4989178;28;20626;-69
2022/08/23 06:21:38;;;;;;;4.93;3.60;;;30.40;55.50;;;34.22;26.82;100608.72;4990083;28;20646;-70
2022/08/23 06:24:06;;;;;;;3.70;3.40;;;30.70;54.90;;;33.53;27.62;100600.78;4992297;28;20626;-70
2022/08/23 06:26:41;;;;;;;11.33;3.37;;;30.80;54.30;;;34.86;26.04;100612.63;4992134;28;20622;-70
2022/08/23 06:29:13;;;;;;;6.40;3.73;;;31.00;54.40;;;35.45;25.87;100620.25;4978190;28;20666;-70
2022/08/23 06:31:47;;;;;;;5.60;3.43;;;31.40;53.90;;;35.97;24.93;100617.19;4992413;28;20741;-69
2022/08/23 06:34:24;;;;;;;3.83;3.50;;;31.90;53.10;;;36.32;24.46;100615.09;5002810;28;20635;-69
2022/08/23 06:36:57;;;;;;;3.80;3.50;;;32.10;52.50;;;37.32;23.68;100618.19;4977065;28;20701;-70
2022/08/23 06:39:27;;;;;;;7.80;3.43;;;32.70;52.00;;;36.61;24.24;100614.41;4994917;28;20688;-69
2022/08/23 06:42:10;;;;;;;5.07;3.53;;;32.40;51.60;;;37.31;22.71;100617.38;5005527;28;20636;-70
2022/08/23 06:44:57;;;;;;;3.90;3.03;;;33.00;50.90;;;38.47;21.97;100620.69;4992433;28;20638;-72
2022/08/23 06:47:24;;;;;;;3.87;3.53;;;33.70;50.50;;;39.49;21.48;100630.50;5010578;28;20641;-70
2022/08/23 06:49:51;;;;;;;3.83;3.27;;;34.40;49.90;;;40.54;20.27;100628.66;4990576;28;21279;-70
2022/08/23 06:52:26;;;;;;;3.43;3.23;;;35.10;48.90;;;41.84;19.06;100632.72;4991896;28;20619;-70
2022/08/23 06:54:53;;;;;;;5.47;3.57;;;36.00;48.20;;;42.47;17.95;100634.19;4990009;28;20635;-71
2022/08/23 06:57:20;;;;;;;5.57;3.07;;;36.70;47.10;;;42.16;18.55;100624.13;4991247;28;20607;-70
2022/08/23 06:59:48;;;;;;;3.03;2.93;;;36.70;46.40;;;43.19;17.94;100637.88;4990376;28;20753;-71
2022/08/23 07:02:15;;;;;;;3.33;3.13;;;37.30;46.80;;;42.77;17.85;100631.28;4992264;28;20719;-70
2022/08/23 07:04:42;;;;;;;3.50;3.20;;;37.40;45.50;;;43.09;17.55;100627.22;4991267;28;20742;-72
2022/08/23 07:07:10;;;;;;;3.30;3.07;;;37.50;45.50;;;43.41;17.37;100628.59;4990717;28;20642;-71
2022/08/23 07:09:39;;;;;;;5.73;3.57;;;37.70;45.10;;;43.98;17.20;100632.53;4990129;28;20677;-69
2022/08/23 07:12:06;;;;;;;4.17;3.30;;;38.20;44.80;;;44.50;16.50;100633.03;4985776;28;20630;-71
2022/08/23 07:14:35;;;;;;;7.23;3.57;;;38.50;44.50;;;44.81;16.17;100630.69;4984860;28;20629;-71
2022/08/23 07:17:03;;;;;;;3.03;2.80;;;38.90;44.20;;;45.23;15.85;100634.97;4991152;28;20651;-71
2022/08/23 07:19:33;;;;;;;2.77;2.67;;;39.30;43.70;;;45.47;15.69;100639.72;4990640;28;20661;-71
2022/08/23 07:22:03;;;;;;;2.63;2.53;;;39.60;43.00;;;43.40;17.00;100641.53;4990167;28;20658;-71
2022/08/23 07:24:31;;;;;;;2.67;2.47;;;38.80;42.40;;;43.38;17.15;100632.81;4991546;28;20619;-71
2022/08/23 07:27:05;;;;;;;4.00;2.53;;;38.60;42.80;;;43.46;17.27;100631.97;4990402;28;20717;-73
2022/08/23 07:29:35;;;;;;;2.73;2.53;;;38.60;43.00;;;43.54;16.84;100633.06;4989726;28;20729;-71
2022/08/23 07:32:03;;;;;;;3.20;3.00;;;38.60;43.10;;;43.14;17.58;100629.78;4974056;28;20625;-71
2022/08/23 07:34:30;;;;;;;2.70;2.50;;;38.30;43.20;;;43.41;17.21;100631.34;4989946;28;20639;-73
2022/08/23 07:36:57;;;;;;;3.27;3.07;;;38.40;43.30;;;42.30;17.76;100630.28;4988188;28;21185;-72
2022/08/23 07:39:25;;;;;;;5.93;2.60;;;38.00;43.20;;;41.56;18.80;100628.56;4990618;28;20665;-71
2022/08/23 07:41:52;;;;;;;3.27;2.90;;;37.30;43.60;;;40.77;19.53;100630.28;4978628;28;21004;-73
2022/08/23 07:44:19;;;;;;;2.80;2.70;;;36.90;43.90;;;40.45;19.82;100625.84;4994005;28;20642;-71
2022/08/23 07:46:53;;;;;;;2.87;2.67;;;36.70;43.90;;;39.69;20.63;100625.78;5006837;28;20629;-71
2022/08/23 07:49:20;;;;;;;5.80;2.70;;;36.20;44.40;;;39.00;20.88;100627.53;4997685;28;20674;-71
2022/08/23 07:51:49;;;;;;;2.80;2.70;;;35.50;45.00;;;39.31;20.54;100623.22;4990571;28;20614;-71
2022/08/23 07:54:20;;;;;;;3.50;3.00;;;35.40;45.20;;;39.84;20.53;100630.94;4977864;28;20709;-73
2022/08/23 07:56:47;;;;;;;2.70;2.50;;;35.70;45.10;;;40.17;20.18;100629.72;4984417;28;20619;-71
2022/08/23 07:59:14;;;;;;;3.80;3.50;;;35.90;45.10;;;38.69;21.68;100629.94;4995211;28;20643;-71
2022/08/23 08:01:43;;;;;;;3.00;2.80;;;35.60;45.10;;;39.08;21.37;100626.03;4998467;28;20681;-72
2022/08/23 08:04:11;;;;;;;2.83;2.60;;;35.60;45.30;;;39.87;20.62;100631.13;4995746;28;21231;-72
2022/08/23 08:06:42;;;;;;;3.07;2.87;;;35.50;45.50;;;41.68;18.92;100637.81;4979745;28;20646;-71
2022/08/23 08:09:11;;;;;;;4.73;2.90;;;36.50;45.10;;;42.26;18.32;100640.25;4979557;28;20662;-68
2022/08/23 08:11:46;;;;;;;3.07;2.97;;;37.20;44.20;;;41.88;18.38;100643.84;4998223;28;21003;-69
2022/08/23 08:14:15;;;;;;;3.50;3.20;;;37.20;43.90;;;42.95;18.34;100643.88;4977950;28;20618;-70
2022/08/23 08:16:46;;;;;;;3.73;2.93;;;37.70;43.90;;;43.27;17.62;100650.78;4993143;28;20690;-69
2022/08/23 08:19:15;;;;;;;5.00;2.60;;;37.90;43.50;;;44.06;17.42;100655.66;4996205;28;20653;-68
2022/08/23 08:21:47;;;;;;;2.90;2.80;;;38.40;43.30;;;44.94;16.55;100648.84;4997531;28;20680;-69
2022/08/23 08:24:15;;;;;;;3.10;2.90;;;39.00;42.80;;;46.20;15.14;100654.31;4996186;28;20776;-69
2022/08/23 08:26:44;;;;;;;3.30;3.10;;;39.80;42.20;;;46.41;14.95;100660.50;4997242;28;20622;-68
2022/08/23 08:29:12;;;;;;;3.23;3.03;;;40.20;41.60;;;45.80;15.97;100653.41;4996917;28;21268;-68
2022/08/23 08:31:42;;;;;;;2.90;2.73;;;39.80;41.80;;;44.60;16.59;100652.69;4979122;28;20631;-69
2022/08/23 08:34:09;;;;;;;3.40;3.10;;;39.70;41.50;;;46.02;15.87;100655.72;4986705;28;20630;-70
2022/08/23 08:36:57;;;;;;;3.00;2.90;;;39.90;41.90;;;47.79;14.42;100665.16;4983691;28;20618;-69
2022/08/23 08:39:31;;;;;;;3.03;2.90;;;40.90;41.20;;;47.55;14.34;100662.53;4980006;28;20650;-69
2022/08/23 08:42:11;;;;;;;2.90;2.80;;;41.20;40.60;;;47.35;14.75;100660.81;4998178;28;21197;-69
2022/08/23 08:44:50;;;;;;;5.47;2.97;;;41.20;40.70;;;46.57;15.59;100650.34;4978734;28;20617;-69
2022/08/23 08:47:21;;;;;;;2.77;2.67;;;40.90;40.70;;;47.54;14.86;100660.91;4960383;28;20627;-71
2022/08/23 08:50:17;;;;;;;2.93;2.60;;;41.10;40.70;;;48.88;13.86;100658.50;4976636;28;20677;-69
2022/08/23 08:53:12;;;;;;;2.77;2.67;;;41.90;40.40;;;50.14;13.10;100672.94;4990380;28;21007;-69
2022/08/23 08:55:49;;;;;;;3.40;3.20;;;42.80;39.90;;;51.44;11.59;100670.94;4994935;28;20633;-69
2022/08/23 08:58:49;;;;;;;2.97;2.87;;;43.80;39.30;;;52.61;11.09;100670.56;4964358;28;20635;-68
2022/08/23 09:01:18;;;;;;;3.10;2.90;;;44.50;38.70;;;53.82;10.41;100669.56;4968909;28;20666;-69
2022/08/23 09:03:47;;;;;;;2.90;2.73;;;45.40;38.10;;;53.82;10.28;100666.78;4996565;28;20642;-69
2022/08/23 09:06:31;;;;;;;2.90;2.73;;;45.50;37.80;;;53.43;10.73;100675.13;4995819;28;20622;-70
2022/08/23 09:09:45;;;;;;;2.80;2.70;;;45.50;37.80;;;53.59;10.77;100671.97;4995437;28;20656;-69
2022/08/23 09:12:48;;;;;;;4.10;2.90;;;45.70;37.70;;;54.81;10.35;100667.25;4993001;28;20640;-69
2022/08/23 09:16:08;;;;;;;3.10;2.90;;;46.70;36.90;;;55.90;9.21;100668.38;4984484;28;20621;-69
2022/08/23 09:18:37;;;;;;;5.30;3.17;;;47.40;36.50;;;56.64;9.48;100679.53;4979680;28;20641;-69
2022/08/23 09:21:07;;;;;;;3.63;3.50;;;47.90;36.20;;;57.31;8.96;100680.56;4993165;28;20646;-69
2022/08/23 09:23:44;;;;;;;3.10;3.00;;;48.40;36.00;;;54.60;10.15;100661.75;4992818;28;20637;-69
2022/08/23 09:26:21;;;;;;;3.33;2.93;;;47.50;35.60;;;54.83;9.91;100659.25;4994425;28;20613;-69
2022/08/23 09:29:02;;;;;;;3.77;3.57;;;47.50;36.00;;;54.00;10.37;100657.16;4992537;28;20761;-67
2022/08/23 09:31:51;;;;;;;3.00;2.90;;;46.80;36.20;;;53.16;10.88;100662.78;4976338;28;20636;-69
2022/08/23 09:34:33;;;;;;;2.87;2.73;;;46.10;36.30;;;55.88;9.05;100662.41;4990799;28;20625;-69
2022/08/23 09:37:13;;;;;;;3.93;2.93;;;47.50;36.10;;;52.56;11.18;100659.81;4991790;28;20665;-69
2022/08/23 09:39:46;;;;;;;3.20;3.10;;;46.10;35.70;;;53.82;10.35;100653.59;4955846;28;20657;-69
2022/08/23 09:42:37;;;;;;;2.90;2.80;;;46.60;35.90;;;55.42;9.10;100655.22;4963754;28;21209;-69
2022/08/23 09:45:38;;;;;;;3.40;3.10;;;47.50;35.80;;;56.31;8.72;100663.56;4993033;28;20734;-69
2022/08/23 09:48:11;;;;;;;3.67;3.47;;;48.40;35.40;;;56.70;9.02;100661.03;4970285;28;20653;-71
2022/08/23 09:50:46;;;;;;;3.40;3.20;;;48.60;35.10;;;56.65;9.17;100664.31;4976527;28;21165;-70
2022/08/23 09:53:23;;;;;;;3.30;3.10;;;48.80;35.20;;;56.08;9.32;100661.38;4975291;28;21037;-70
2022/08/23 09:55:56;;;;;;;3.40;3.30;;;48.50;34.90;;;56.15;9.52;100652.91;4975102;28;21170;-69
2022/08/23 09:58:41;;;;;;;3.63;3.40;;;48.70;34.90;;;56.05;8.59;100653.03;4973291;28;20627;-70
2022/08/23 10:01:15;;;;;;;3.00;2.80;;;48.40;34.80;;;53.60;10.16;100640.88;4991963;28;21021;-70
2022/08/23 10:03:43;;;;;;;3.17;3.07;;;47.00;34.60;;;54.76;9.55;100636.91;4990272;28;20638;-69
2022/08/23 10:06:27;;;;;;;3.50;3.40;;;47.10;35.00;;;56.99;8.30;100641.00;4985034;28;20634;-70
2022/08/23 10:09:02;;;;;;;3.10;3.00;;;48.30;34.80;;;55.83;8.89;100637.66;4991423;28;20673;-68
2022/08/23 10:11:36;;;;;;;3.70;3.50;;;47.70;34.80;;;53.78;10.06;100633.28;4992784;28;20623;-70
2022/08/23 10:14:03;;;;;;;3.50;3.30;;;46.80;34.70;;;52.20;11.20;100633.78;4988600;28;20728;-71
2022/08/23 10:16:53;;;;;;;2.90;2.80;;;46.40;34.80;;;52.72;10.93;100629.59;4991535;28;20618;-69
2022/08/23 10:19:53;;;;;;;3.33;3.10;;;45.70;35.50;;;53.89;10.40;100624.88;4991895;28;20658;-69
2022/08/23 10:22:27;;;;;;;4.07;3.13;;;46.30;35.60;;;52.20;11.03;100624.63;4975880;28;20988;-69
2022/08/23 10:25:11;;;;;;;3.87;3.60;;;45.60;35.80;;;49.26;12.77;100603.00;4975933;28;20622;-69
2022/08/23 10:31:14;;;;;;;3.90;2.80;;;43.60;37.00;;;44.31;16.27;100596.91;4992823;28;20674;-68
2022/08/23 10:33:47;;;;;;;3.50;3.20;;;41.50;37.30;;;42.37;17.93;100605.09;4974446;28;20642;-69
2022/08/23 10:36:53;;;;;;;3.07;2.97;;;40.10;38.60;;;40.95;19.00;100589.06;4974555;28;20622;-69
2022/08/23 10:42:05;;;;;;;3.33;3.10;;;37.60;40.60;;;37.46;22.63;100586.53;4971827;28;20726;-67
2022/08/23 10:44:34;;;;;;;3.43;3.23;;;36.30;41.60;;;35.97;24.23;100588.09;4970098;28;20746;-68
2022/08/23 10:47:26;;;;;;;3.53;3.33;;;35.10;42.60;;;35.84;24.27;100596.84;4972258;28;20616;-67
2022/08/23 10:49:57;;;;;;;3.50;3.30;;;34.50;43.30;;;35.32;25.21;100590.94;4967908;28;21250;-66